sensor_id;sensor_type;location;lat;lon;timestamp;P1;durP1;ratioP1;P2;durP2;ratioP2
18623;SDS011;9441;51.420;7.036;2022-09-30T00:00:57;12.47;;;8.07;;
18623;SDS011;9441;51.420;7.036;2022-09-30T00:02:00;14.87;;;8.13;;
18623;SDS011;9441;51.420;7.036;2022-09-30T00:03:01;12.20;;;8.20;;
18623;SDS011;9441;51.420;7.036;2022-09-30T00:04:04;11.53;;;6.87;;
18623;SDS011;9441;51.420;7.036;2022-09-30T00:05:06;11.57;;;7.37;;
18623;SDS011;9441;51.420;7.036;2022-09-30T00:06:08;14.23;;;7.27;;
18623;SDS011;9441;51.420;7.036;2022-09-30T00:07:10;9.87;;;7.10;;
18623;SDS011;9441;51.420;7.036;2022-09-30T00:08:12;13.63;;;7.67;;
18623;SDS011;9441;51.420;7.036;2022-09-30T00:09:13;14.03;;;7.17;;
18623;SDS011;9441;51.420;7.036;2022-09-30T00:10:16;16.73;;;7.40;;
18623;SDS011;9441;51.420;7.036;2022-09-30T00:11:18;15.73;;;7.00;;
18623;SDS011;9441;51.420;7.036;2022-09-30T00:12:21;14.20;;;6.77;;
18623;SDS011;9441;51.420;7.036;2022-09-30T00:13:22;11.50;;;6.87;;
18623;SDS011;9441;51.420;7.036;2022-09-30T00:14:24;15.07;;;6.90;;
18623;SDS011;9441;51.420;7.036;2022-09-30T00:15:25;12.30;;;6.57;;
18623;SDS011;9441;51.420;7.036;2022-09-30T00:16:28;10.50;;;7.00;;
18623;SDS011;9441;51.420;7.036;2022-09-30T00:17:31;10.37;;;6.50;;
18623;SDS011;9441;51.420;7.036;2022-09-30T00:18:33;13.93;;;7.03;;
18623;SDS011;9441;51.420;7.036;2022-09-30T00:19:35;13.33;;;6.77;;
18623;SDS011;9441;51.420;7.036;2022-09-30T00:20:38;10.93;;;7.03;;
18623;SDS011;9441;51.420;7.036;2022-09-30T00:21:39;12.00;;;7.03;;
18623;SDS011;9441;51.420;7.036;2022-09-30T00:22:41;15.27;;;6.73;;
18623;SDS011;9441;51.420;7.036;2022-09-30T00:23:44;16.87;;;7.10;;
18623;SDS011;9441;51.420;7.036;2022-09-30T00:24:46;12.27;;;6.73;;
18623;SDS011;9441;51.420;7.036;2022-09-30T00:25:48;13.93;;;6.57;;
18623;SDS011;9441;51.420;7.036;2022-09-30T00:26:50;9.53;;;6.50;;
18623;SDS011;9441;51.420;7.036;2022-09-30T00:27:52;11.13;;;6.17;;
18623;SDS011;9441;51.420;7.036;2022-09-30T00:28:54;15.83;;;6.83;;
18623;SDS011;9441;51.420;7.036;2022-09-30T00:29:58;9.93;;;5.80;;
18623;SDS011;9441;51.420;7.036;2022-09-30T00:31:00;9.27;;;6.43;;
18623;SDS011;9441;51.420;7.036;2022-09-30T00:32:04;11.97;;;6.43;;
18623;SDS011;9441;51.420;7.036;2022-09-30T00:33:07;12.10;;;6.50;;
18623;SDS011;9441;51.420;7.036;2022-09-30T00:34:08;10.70;;;6.50;;
18623;SDS011;9441;51.420;7.036;2022-09-30T00:35:11;13.87;;;6.60;;
18623;SDS011;9441;51.420;7.036;2022-09-30T00:36:12;12.10;;;6.00;;
18623;SDS011;9441;51.420;7.036;2022-09-30T00:37:14;12.10;;;6.60;;
18623;SDS011;9441;51.420;7.036;2022-09-30T00:38:16;10.60;;;5.90;;
18623;SDS011;9441;51.420;7.036;2022-09-30T00:39:19;11.83;;;6.30;;
18623;SDS011;9441;51.420;7.036;2022-09-30T00:40:21;15.60;;;6.27;;
18623;SDS011;9441;51.420;7.036;2022-09-30T00:41:23;18.13;;;6.03;;
18623;SDS011;9441;51.420;7.036;2022-09-30T00:42:24;10.87;;;6.13;;
18623;SDS011;9441;51.420;7.036;2022-09-30T00:43:39;14.00;;;6.20;;
18623;SDS011;9441;51.420;7.036;2022-09-30T00:44:43;8.67;;;6.17;;
18623;SDS011;9441;51.420;7.036;2022-09-30T00:45:52;10.57;;;5.57;;
18623;SDS011;9441;51.420;7.036;2022-09-30T00:46:55;11.30;;;6.20;;
18623;SDS011;9441;51.420;7.036;2022-09-30T00:48:00;8.27;;;5.67;;
18623;SDS011;9441;51.420;7.036;2022-09-30T00:49:10;10.57;;;5.53;;
18623;SDS011;9441;51.420;7.036;2022-09-30T00:50:26;12.77;;;5.90;;
18623;SDS011;9441;51.420;7.036;2022-09-30T00:51:34;11.57;;;5.70;;
18623;SDS011;9441;51.420;7.036;2022-09-30T00:52:38;8.90;;;5.93;;
18623;SDS011;9441;51.420;7.036;2022-09-30T00:53:42;9.57;;;6.00;;
18623;SDS011;9441;51.420;7.036;2022-09-30T00:54:50;13.27;;;5.83;;
18623;SDS011;9441;51.420;7.036;2022-09-30T00:55:53;12.20;;;6.00;;
18623;SDS011;9441;51.420;7.036;2022-09-30T00:57:01;10.97;;;5.57;;
18623;SDS011;9441;51.420;7.036;2022-09-30T00:58:03;10.97;;;6.07;;
18623;SDS011;9441;51.420;7.036;2022-09-30T00:59:09;8.83;;;5.33;;
18623;SDS011;9441;51.420;7.036;2022-09-30T01:00:14;10.40;;;5.60;;
18623;SDS011;9441;51.420;7.036;2022-09-30T01:01:16;10.33;;;5.57;;
18623;SDS011;9441;51.420;7.036;2022-09-30T01:02:18;9.13;;;5.53;;
18623;SDS011;9441;51.420;7.036;2022-09-30T01:03:20;9.20;;;6.10;;
18623;SDS011;9441;51.420;7.036;2022-09-30T01:04:23;10.73;;;6.20;;
18623;SDS011;9441;51.420;7.036;2022-09-30T01:05:27;10.37;;;5.83;;
18623;SDS011;9441;51.420;7.036;2022-09-30T01:06:32;10.07;;;5.90;;
18623;SDS011;9441;51.420;7.036;2022-09-30T01:07:34;14.90;;;5.70;;
18623;SDS011;9441;51.420;7.036;2022-09-30T01:08:36;9.60;;;5.73;;
18623;SDS011;9441;51.420;7.036;2022-09-30T01:09:40;13.27;;;5.77;;
18623;SDS011;9441;51.420;7.036;2022-09-30T01:10:42;10.30;;;6.10;;
18623;SDS011;9441;51.420;7.036;2022-09-30T01:11:45;10.73;;;6.00;;
18623;SDS011;9441;51.420;7.036;2022-09-30T01:12:46;11.40;;;6.07;;
18623;SDS011;9441;51.420;7.036;2022-09-30T01:13:49;12.93;;;6.00;;
18623;SDS011;9441;51.420;7.036;2022-09-30T01:14:52;10.97;;;6.27;;
18623;SDS011;9441;51.420;7.036;2022-09-30T01:16:00;12.83;;;6.17;;
18623;SDS011;9441;51.420;7.036;2022-09-30T01:17:31;13.90;;;6.10;;
18623;SDS011;9441;51.420;7.036;2022-09-30T01:18:47;11.00;;;6.10;;
18623;SDS011;9441;51.420;7.036;2022-09-30T01:20:05;11.33;;;5.90;;
18623;SDS011;9441;51.420;7.036;2022-09-30T01:21:52;10.00;;;5.80;;
18623;SDS011;9441;51.420;7.036;2022-09-30T01:23:27;11.20;;;6.37;;
18623;SDS011;9441;51.420;7.036;2022-09-30T01:26:24;11.37;;;6.90;;
18623;SDS011;9441;51.420;7.036;2022-09-30T01:28:06;13.30;;;7.10;;
18623;SDS011;9441;51.420;7.036;2022-09-30T01:30:57;12.63;;;7.40;;
18623;SDS011;9441;51.420;7.036;2022-09-30T01:32:12;12.30;;;7.73;;
18623;SDS011;9441;51.420;7.036;2022-09-30T01:33:25;14.07;;;7.90;;
18623;SDS011;9441;51.420;7.036;2022-09-30T01:34:37;20.37;;;8.90;;
18623;SDS011;9441;51.420;7.036;2022-09-30T01:35:59;14.63;;;8.40;;
18623;SDS011;9441;51.420;7.036;2022-09-30T01:37:10;15.67;;;8.97;;
18623;SDS011;9441;51.420;7.036;2022-09-30T01:38:23;16.07;;;9.03;;
18623;SDS011;9441;51.420;7.036;2022-09-30T01:39:35;17.50;;;9.17;;
18623;SDS011;9441;51.420;7.036;2022-09-30T01:40:43;15.67;;;9.47;;
18623;SDS011;9441;51.420;7.036;2022-09-30T01:41:49;15.77;;;9.20;;
18623;SDS011;9441;51.420;7.036;2022-09-30T01:42:55;17.33;;;9.23;;
18623;SDS011;9441;51.420;7.036;2022-09-30T01:44:07;13.30;;;8.47;;
18623;SDS011;9441;51.420;7.036;2022-09-30T01:45:17;18.67;;;9.17;;
18623;SDS011;9441;51.420;7.036;2022-09-30T01:46:30;13.43;;;8.83;;
18623;SDS011;9441;51.420;7.036;2022-09-30T01:47:40;13.83;;;8.90;;
18623;SDS011;9441;51.420;7.036;2022-09-30T01:48:45;17.83;;;8.97;;
18623;SDS011;9441;51.420;7.036;2022-09-30T01:49:55;17.37;;;7.80;;
18623;SDS011;9441;51.420;7.036;2022-09-30T01:51:02;13.03;;;7.10;;
18623;SDS011;9441;51.420;7.036;2022-09-30T01:52:12;12.17;;;6.90;;
18623;SDS011;9441;51.420;7.036;2022-09-30T01:53:18;15.90;;;7.47;;
18623;SDS011;9441;51.420;7.036;2022-09-30T01:54:26;15.97;;;7.40;;
18623;SDS011;9441;51.420;7.036;2022-09-30T01:55:34;14.07;;;8.20;;
18623;SDS011;9441;51.420;7.036;2022-09-30T01:56:42;13.53;;;8.60;;
18623;SDS011;9441;51.420;7.036;2022-09-30T01:57:48;16.30;;;9.27;;
18623;SDS011;9441;51.420;7.036;2022-09-30T01:58:56;16.40;;;9.73;;
18623;SDS011;9441;51.420;7.036;2022-09-30T02:00:03;20.30;;;10.00;;
18623;SDS011;9441;51.420;7.036;2022-09-30T02:01:12;21.20;;;9.90;;
18623;SDS011;9441;51.420;7.036;2022-09-30T02:02:20;14.67;;;9.37;;
18623;SDS011;9441;51.420;7.036;2022-09-30T02:03:25;17.23;;;9.30;;
18623;SDS011;9441;51.420;7.036;2022-09-30T02:04:31;19.40;;;9.80;;
18623;SDS011;9441;51.420;7.036;2022-09-30T02:05:38;18.20;;;9.70;;
18623;SDS011;9441;51.420;7.036;2022-09-30T02:06:45;17.87;;;9.40;;
18623;SDS011;9441;51.420;7.036;2022-09-30T02:07:52;18.57;;;9.73;;
18623;SDS011;9441;51.420;7.036;2022-09-30T02:08:57;20.00;;;9.47;;
18623;SDS011;9441;51.420;7.036;2022-09-30T02:10:04;19.33;;;9.83;;
18623;SDS011;9441;51.420;7.036;2022-09-30T02:11:11;17.70;;;9.60;;
18623;SDS011;9441;51.420;7.036;2022-09-30T02:12:18;14.10;;;9.07;;
18623;SDS011;9441;51.420;7.036;2022-09-30T02:13:23;19.37;;;9.60;;
18623;SDS011;9441;51.420;7.036;2022-09-30T02:14:32;17.13;;;9.63;;
18623;SDS011;9441;51.420;7.036;2022-09-30T02:15:53;19.27;;;9.83;;
18623;SDS011;9441;51.420;7.036;2022-09-30T02:16:58;16.87;;;9.60;;
18623;SDS011;9441;51.420;7.036;2022-09-30T02:18:03;17.73;;;9.80;;
18623;SDS011;9441;51.420;7.036;2022-09-30T02:19:15;22.73;;;9.63;;
18623;SDS011;9441;51.420;7.036;2022-09-30T02:20:20;20.60;;;10.97;;
18623;SDS011;9441;51.420;7.036;2022-09-30T02:21:26;18.10;;;9.67;;
18623;SDS011;9441;51.420;7.036;2022-09-30T02:22:33;19.63;;;10.20;;
18623;SDS011;9441;51.420;7.036;2022-09-30T02:23:42;18.40;;;9.70;;
18623;SDS011;9441;51.420;7.036;2022-09-30T02:24:47;20.23;;;10.90;;
18623;SDS011;9441;51.420;7.036;2022-09-30T02:25:54;17.83;;;10.33;;
18623;SDS011;9441;51.420;7.036;2022-09-30T02:27:06;24.03;;;10.37;;
18623;SDS011;9441;51.420;7.036;2022-09-30T02:28:11;18.90;;;10.20;;
18623;SDS011;9441;51.420;7.036;2022-09-30T02:29:17;18.03;;;9.83;;
18623;SDS011;9441;51.420;7.036;2022-09-30T02:30:22;18.03;;;10.10;;
18623;SDS011;9441;51.420;7.036;2022-09-30T02:31:23;18.33;;;10.07;;
18623;SDS011;9441;51.420;7.036;2022-09-30T02:32:29;15.90;;;9.80;;
18623;SDS011;9441;51.420;7.036;2022-09-30T02:33:35;16.47;;;9.70;;
18623;SDS011;9441;51.420;7.036;2022-09-30T02:34:41;20.60;;;10.37;;
18623;SDS011;9441;51.420;7.036;2022-09-30T02:35:46;17.70;;;10.30;;
18623;SDS011;9441;51.420;7.036;2022-09-30T02:36:53;21.30;;;9.90;;
18623;SDS011;9441;51.420;7.036;2022-09-30T02:37:58;17.50;;;10.73;;
18623;SDS011;9441;51.420;7.036;2022-09-30T02:39:05;16.67;;;10.70;;
18623;SDS011;9441;51.420;7.036;2022-09-30T02:40:10;17.90;;;11.30;;
18623;SDS011;9441;51.420;7.036;2022-09-30T02:41:18;22.27;;;10.53;;
18623;SDS011;9441;51.420;7.036;2022-09-30T02:42:25;16.50;;;9.93;;
18623;SDS011;9441;51.420;7.036;2022-09-30T02:43:29;19.43;;;10.60;;
18623;SDS011;9441;51.420;7.036;2022-09-30T02:44:31;18.87;;;10.00;;
18623;SDS011;9441;51.420;7.036;2022-09-30T02:45:35;22.47;;;10.80;;
18623;SDS011;9441;51.420;7.036;2022-09-30T02:46:42;17.00;;;9.77;;
18623;SDS011;9441;51.420;7.036;2022-09-30T02:47:55;21.60;;;11.07;;
18623;SDS011;9441;51.420;7.036;2022-09-30T02:49:04;21.37;;;10.27;;
18623;SDS011;9441;51.420;7.036;2022-09-30T02:50:13;17.13;;;10.27;;
18623;SDS011;9441;51.420;7.036;2022-09-30T02:51:20;24.90;;;10.63;;
18623;SDS011;9441;51.420;7.036;2022-09-30T02:52:32;19.90;;;10.43;;
18623;SDS011;9441;51.420;7.036;2022-09-30T02:53:44;16.83;;;10.73;;
18623;SDS011;9441;51.420;7.036;2022-09-30T02:54:58;18.77;;;10.37;;
18623;SDS011;9441;51.420;7.036;2022-09-30T02:56:11;20.10;;;9.93;;
18623;SDS011;9441;51.420;7.036;2022-09-30T02:57:21;18.40;;;10.30;;
18623;SDS011;9441;51.420;7.036;2022-09-30T02:58:27;19.53;;;10.20;;
18623;SDS011;9441;51.420;7.036;2022-09-30T02:59:30;15.27;;;9.67;;
18623;SDS011;9441;51.420;7.036;2022-09-30T03:00:31;16.17;;;10.70;;
18623;SDS011;9441;51.420;7.036;2022-09-30T03:01:33;16.63;;;10.47;;
18623;SDS011;9441;51.420;7.036;2022-09-30T03:02:34;20.37;;;10.93;;
18623;SDS011;9441;51.420;7.036;2022-09-30T03:03:37;19.67;;;10.70;;
18623;SDS011;9441;51.420;7.036;2022-09-30T03:04:42;21.37;;;9.90;;
18623;SDS011;9441;51.420;7.036;2022-09-30T03:05:47;18.93;;;10.70;;
18623;SDS011;9441;51.420;7.036;2022-09-30T03:06:49;20.97;;;10.33;;
18623;SDS011;9441;51.420;7.036;2022-09-30T03:07:51;17.83;;;10.73;;
18623;SDS011;9441;51.420;7.036;2022-09-30T03:08:52;22.50;;;11.37;;
18623;SDS011;9441;51.420;7.036;2022-09-30T03:09:54;20.47;;;10.57;;
18623;SDS011;9441;51.420;7.036;2022-09-30T03:10:56;18.30;;;9.83;;
18623;SDS011;9441;51.420;7.036;2022-09-30T03:12:00;19.20;;;10.53;;
18623;SDS011;9441;51.420;7.036;2022-09-30T03:13:16;22.47;;;11.20;;
18623;SDS011;9441;51.420;7.036;2022-09-30T03:14:38;24.07;;;10.40;;
18623;SDS011;9441;51.420;7.036;2022-09-30T03:15:54;19.47;;;10.57;;
18623;SDS011;9441;51.420;7.036;2022-09-30T03:17:08;23.57;;;11.13;;
18623;SDS011;9441;51.420;7.036;2022-09-30T03:18:33;21.23;;;10.73;;
18623;SDS011;9441;51.420;7.036;2022-09-30T03:19:51;26.40;;;10.87;;
18623;SDS011;9441;51.420;7.036;2022-09-30T03:21:07;22.53;;;11.60;;
18623;SDS011;9441;51.420;7.036;2022-09-30T03:22:29;23.10;;;11.87;;
18623;SDS011;9441;51.420;7.036;2022-09-30T03:23:49;23.00;;;10.67;;
18623;SDS011;9441;51.420;7.036;2022-09-30T03:25:14;20.10;;;10.23;;
18623;SDS011;9441;51.420;7.036;2022-09-30T03:26:26;21.23;;;10.93;;
18623;SDS011;9441;51.420;7.036;2022-09-30T03:27:38;21.17;;;10.20;;
18623;SDS011;9441;51.420;7.036;2022-09-30T03:28:49;16.40;;;9.30;;
18623;SDS011;9441;51.420;7.036;2022-09-30T03:30:00;20.83;;;10.20;;
18623;SDS011;9441;51.420;7.036;2022-09-30T03:31:04;12.87;;;7.20;;
18623;SDS011;9441;51.420;7.036;2022-09-30T03:32:17;20.87;;;9.43;;
18623;SDS011;9441;51.420;7.036;2022-09-30T03:33:29;18.77;;;8.40;;
18623;SDS011;9441;51.420;7.036;2022-09-30T03:34:45;16.67;;;10.17;;
18623;SDS011;9441;51.420;7.036;2022-09-30T03:36:00;12.77;;;7.10;;
18623;SDS011;9441;51.420;7.036;2022-09-30T03:37:07;13.03;;;7.30;;
18623;SDS011;9441;51.420;7.036;2022-09-30T03:38:20;13.40;;;7.17;;
18623;SDS011;9441;51.420;7.036;2022-09-30T03:39:35;14.17;;;7.80;;
18623;SDS011;9441;51.420;7.036;2022-09-30T03:40:50;11.40;;;7.20;;
18623;SDS011;9441;51.420;7.036;2022-09-30T03:41:57;11.73;;;6.93;;
18623;SDS011;9441;51.420;7.036;2022-09-30T03:43:08;14.03;;;8.03;;
18623;SDS011;9441;51.420;7.036;2022-09-30T03:44:18;12.50;;;8.07;;
18623;SDS011;9441;51.420;7.036;2022-09-30T03:45:27;15.10;;;7.83;;
18623;SDS011;9441;51.420;7.036;2022-09-30T03:46:32;15.17;;;9.43;;
18623;SDS011;9441;51.420;7.036;2022-09-30T03:47:39;17.13;;;9.80;;
18623;SDS011;9441;51.420;7.036;2022-09-30T03:48:43;16.50;;;10.13;;
18623;SDS011;9441;51.420;7.036;2022-09-30T03:49:47;18.50;;;10.90;;
18623;SDS011;9441;51.420;7.036;2022-09-30T03:50:52;23.43;;;10.87;;
18623;SDS011;9441;51.420;7.036;2022-09-30T03:51:55;18.63;;;10.50;;
18623;SDS011;9441;51.420;7.036;2022-09-30T03:52:57;21.20;;;11.60;;
18623;SDS011;9441;51.420;7.036;2022-09-30T03:54:00;21.40;;;11.30;;
18623;SDS011;9441;51.420;7.036;2022-09-30T03:55:02;20.73;;;11.50;;
18623;SDS011;9441;51.420;7.036;2022-09-30T03:56:07;18.43;;;10.40;;
18623;SDS011;9441;51.420;7.036;2022-09-30T03:57:08;22.80;;;10.80;;
18623;SDS011;9441;51.420;7.036;2022-09-30T03:58:10;17.60;;;9.80;;
18623;SDS011;9441;51.420;7.036;2022-09-30T03:59:11;12.27;;;7.63;;
18623;SDS011;9441;51.420;7.036;2022-09-30T04:00:20;14.47;;;7.80;;
18623;SDS011;9441;51.420;7.036;2022-09-30T04:01:22;13.13;;;7.37;;
18623;SDS011;9441;51.420;7.036;2022-09-30T04:02:25;13.70;;;7.60;;
18623;SDS011;9441;51.420;7.036;2022-09-30T04:03:26;17.27;;;8.13;;
18623;SDS011;9441;51.420;7.036;2022-09-30T04:04:28;13.90;;;7.20;;
18623;SDS011;9441;51.420;7.036;2022-09-30T04:05:29;13.73;;;7.40;;
18623;SDS011;9441;51.420;7.036;2022-09-30T04:06:32;11.57;;;7.23;;
18623;SDS011;9441;51.420;7.036;2022-09-30T04:07:33;15.27;;;6.70;;
18623;SDS011;9441;51.420;7.036;2022-09-30T04:08:35;10.80;;;6.77;;
18623;SDS011;9441;51.420;7.036;2022-09-30T04:09:37;11.57;;;6.87;;
18623;SDS011;9441;51.420;7.036;2022-09-30T04:10:39;12.87;;;7.53;;
18623;SDS011;9441;51.420;7.036;2022-09-30T04:11:40;12.87;;;7.40;;
18623;SDS011;9441;51.420;7.036;2022-09-30T04:12:43;14.70;;;7.47;;
18623;SDS011;9441;51.420;7.036;2022-09-30T04:13:44;10.60;;;7.27;;
18623;SDS011;9441;51.420;7.036;2022-09-30T04:14:46;12.27;;;7.17;;
18623;SDS011;9441;51.420;7.036;2022-09-30T04:15:52;12.30;;;7.70;;
18623;SDS011;9441;51.420;7.036;2022-09-30T04:16:54;15.57;;;8.07;;
18623;SDS011;9441;51.420;7.036;2022-09-30T04:17:55;11.67;;;7.47;;
18623;SDS011;9441;51.420;7.036;2022-09-30T04:18:58;15.13;;;7.73;;
18623;SDS011;9441;51.420;7.036;2022-09-30T04:20:00;13.43;;;7.67;;
18623;SDS011;9441;51.420;7.036;2022-09-30T04:21:03;14.00;;;7.80;;
18623;SDS011;9441;51.420;7.036;2022-09-30T04:22:06;12.37;;;7.97;;
18623;SDS011;9441;51.420;7.036;2022-09-30T04:23:09;12.97;;;8.23;;
18623;SDS011;9441;51.420;7.036;2022-09-30T04:24:10;14.97;;;7.70;;
18623;SDS011;9441;51.420;7.036;2022-09-30T04:25:12;13.63;;;7.97;;
18623;SDS011;9441;51.420;7.036;2022-09-30T04:26:14;16.33;;;8.70;;
18623;SDS011;9441;51.420;7.036;2022-09-30T04:27:19;14.03;;;7.83;;
18623;SDS011;9441;51.420;7.036;2022-09-30T04:28:20;15.57;;;8.40;;
18623;SDS011;9441;51.420;7.036;2022-09-30T04:29:22;12.47;;;8.37;;
18623;SDS011;9441;51.420;7.036;2022-09-30T04:30:23;15.03;;;9.20;;
18623;SDS011;9441;51.420;7.036;2022-09-30T04:31:25;14.63;;;9.23;;
18623;SDS011;9441;51.420;7.036;2022-09-30T04:32:26;18.33;;;8.43;;
18623;SDS011;9441;51.420;7.036;2022-09-30T04:33:29;16.43;;;9.87;;
18623;SDS011;9441;51.420;7.036;2022-09-30T04:34:30;17.93;;;10.07;;
18623;SDS011;9441;51.420;7.036;2022-09-30T04:35:35;19.60;;;9.30;;
18623;SDS011;9441;51.420;7.036;2022-09-30T04:36:36;18.57;;;9.43;;
18623;SDS011;9441;51.420;7.036;2022-09-30T04:37:41;18.10;;;11.07;;
18623;SDS011;9441;51.420;7.036;2022-09-30T04:38:42;20.20;;;11.07;;
18623;SDS011;9441;51.420;7.036;2022-09-30T04:39:44;20.90;;;11.20;;
18623;SDS011;9441;51.420;7.036;2022-09-30T04:40:45;22.87;;;11.70;;
18623;SDS011;9441;51.420;7.036;2022-09-30T04:41:48;22.13;;;9.83;;
18623;SDS011;9441;51.420;7.036;2022-09-30T04:42:54;17.60;;;10.27;;
18623;SDS011;9441;51.420;7.036;2022-09-30T04:43:56;18.90;;;10.03;;
18623;SDS011;9441;51.420;7.036;2022-09-30T04:44:58;15.23;;;9.47;;
18623;SDS011;9441;51.420;7.036;2022-09-30T04:45:59;14.33;;;8.97;;
18623;SDS011;9441;51.420;7.036;2022-09-30T04:47:01;14.53;;;9.27;;
18623;SDS011;9441;51.420;7.036;2022-09-30T04:48:04;19.87;;;9.33;;
18623;SDS011;9441;51.420;7.036;2022-09-30T04:49:05;19.20;;;8.87;;
18623;SDS011;9441;51.420;7.036;2022-09-30T04:50:07;17.77;;;9.60;;
18623;SDS011;9441;51.420;7.036;2022-09-30T04:51:09;17.07;;;8.27;;
18623;SDS011;9441;51.420;7.036;2022-09-30T04:52:11;13.90;;;8.23;;
18623;SDS011;9441;51.420;7.036;2022-09-30T04:53:13;15.50;;;8.60;;
18623;SDS011;9441;51.420;7.036;2022-09-30T04:54:16;14.97;;;8.80;;
18623;SDS011;9441;51.420;7.036;2022-09-30T04:55:18;14.30;;;8.73;;
18623;SDS011;9441;51.420;7.036;2022-09-30T04:56:20;14.40;;;8.10;;
18623;SDS011;9441;51.420;7.036;2022-09-30T04:57:22;13.43;;;8.23;;
18623;SDS011;9441;51.420;7.036;2022-09-30T04:58:24;16.87;;;8.40;;
18623;SDS011;9441;51.420;7.036;2022-09-30T04:59:25;13.97;;;8.20;;
18623;SDS011;9441;51.420;7.036;2022-09-30T05:00:27;13.83;;;7.73;;
18623;SDS011;9441;51.420;7.036;2022-09-30T05:01:29;14.80;;;8.07;;
18623;SDS011;9441;51.420;7.036;2022-09-30T05:02:31;13.70;;;8.63;;
18623;SDS011;9441;51.420;7.036;2022-09-30T05:03:32;12.90;;;8.20;;
18623;SDS011;9441;51.420;7.036;2022-09-30T05:04:35;16.07;;;8.80;;
18623;SDS011;9441;51.420;7.036;2022-09-30T05:05:36;14.37;;;9.07;;
18623;SDS011;9441;51.420;7.036;2022-09-30T05:06:38;19.57;;;9.37;;
18623;SDS011;9441;51.420;7.036;2022-09-30T05:07:39;18.23;;;10.30;;
18623;SDS011;9441;51.420;7.036;2022-09-30T05:08:43;14.37;;;9.17;;
18623;SDS011;9441;51.420;7.036;2022-09-30T05:09:44;17.37;;;9.57;;
18623;SDS011;9441;51.420;7.036;2022-09-30T05:10:51;22.90;;;10.23;;
18623;SDS011;9441;51.420;7.036;2022-09-30T05:11:54;15.90;;;9.07;;
18623;SDS011;9441;51.420;7.036;2022-09-30T05:12:56;17.63;;;9.10;;
18623;SDS011;9441;51.420;7.036;2022-09-30T05:13:57;14.37;;;7.83;;
18623;SDS011;9441;51.420;7.036;2022-09-30T05:14:59;11.00;;;7.30;;
18623;SDS011;9441;51.420;7.036;2022-09-30T05:16:01;12.23;;;7.73;;
18623;SDS011;9441;51.420;7.036;2022-09-30T05:17:03;12.80;;;7.80;;
18623;SDS011;9441;51.420;7.036;2022-09-30T05:18:04;10.07;;;7.33;;
18623;SDS011;9441;51.420;7.036;2022-09-30T05:19:06;13.93;;;7.80;;
18623;SDS011;9441;51.420;7.036;2022-09-30T05:20:08;9.70;;;7.13;;
18623;SDS011;9441;51.420;7.036;2022-09-30T05:21:11;14.20;;;7.27;;
18623;SDS011;9441;51.420;7.036;2022-09-30T05:22:13;13.60;;;7.90;;
18623;SDS011;9441;51.420;7.036;2022-09-30T05:23:14;15.80;;;8.20;;
18623;SDS011;9441;51.420;7.036;2022-09-30T05:24:17;13.73;;;7.67;;
18623;SDS011;9441;51.420;7.036;2022-09-30T05:25:19;11.30;;;7.53;;
18623;SDS011;9441;51.420;7.036;2022-09-30T05:26:20;11.40;;;7.10;;
18623;SDS011;9441;51.420;7.036;2022-09-30T05:27:22;11.63;;;7.67;;
18623;SDS011;9441;51.420;7.036;2022-09-30T05:28:24;14.83;;;7.57;;
18623;SDS011;9441;51.420;7.036;2022-09-30T05:29:26;12.37;;;7.37;;
18623;SDS011;9441;51.420;7.036;2022-09-30T05:30:28;9.93;;;7.00;;
18623;SDS011;9441;51.420;7.036;2022-09-30T05:31:29;12.60;;;7.77;;
18623;SDS011;9441;51.420;7.036;2022-09-30T05:32:31;15.97;;;8.27;;
18623;SDS011;9441;51.420;7.036;2022-09-30T05:33:32;12.47;;;7.90;;
18623;SDS011;9441;51.420;7.036;2022-09-30T05:34:35;13.80;;;7.50;;
18623;SDS011;9441;51.420;7.036;2022-09-30T05:35:38;15.40;;;8.70;;
18623;SDS011;9441;51.420;7.036;2022-09-30T05:36:41;13.60;;;8.20;;
18623;SDS011;9441;51.420;7.036;2022-09-30T05:37:43;12.53;;;7.20;;
18623;SDS011;9441;51.420;7.036;2022-09-30T05:38:45;11.47;;;8.07;;
18623;SDS011;9441;51.420;7.036;2022-09-30T05:39:50;17.60;;;8.30;;
18623;SDS011;9441;51.420;7.036;2022-09-30T05:40:54;13.07;;;7.93;;
18623;SDS011;9441;51.420;7.036;2022-09-30T05:41:55;13.80;;;8.23;;
18623;SDS011;9441;51.420;7.036;2022-09-30T05:42:58;19.20;;;8.43;;
18623;SDS011;9441;51.420;7.036;2022-09-30T05:44:00;16.23;;;8.60;;
18623;SDS011;9441;51.420;7.036;2022-09-30T05:45:02;14.10;;;8.33;;
18623;SDS011;9441;51.420;7.036;2022-09-30T05:46:04;13.70;;;7.83;;
18623;SDS011;9441;51.420;7.036;2022-09-30T05:47:06;12.90;;;8.27;;
18623;SDS011;9441;51.420;7.036;2022-09-30T05:48:10;17.73;;;8.37;;
18623;SDS011;9441;51.420;7.036;2022-09-30T05:49:12;13.50;;;7.93;;
18623;SDS011;9441;51.420;7.036;2022-09-30T05:50:13;12.40;;;8.13;;
18623;SDS011;9441;51.420;7.036;2022-09-30T05:51:15;19.10;;;9.80;;
18623;SDS011;9441;51.420;7.036;2022-09-30T05:52:17;14.23;;;8.80;;
18623;SDS011;9441;51.420;7.036;2022-09-30T05:53:19;13.63;;;8.33;;
18623;SDS011;9441;51.420;7.036;2022-09-30T05:54:21;12.90;;;8.57;;
18623;SDS011;9441;51.420;7.036;2022-09-30T05:55:23;15.17;;;7.87;;
18623;SDS011;9441;51.420;7.036;2022-09-30T05:56:25;16.53;;;9.07;;
18623;SDS011;9441;51.420;7.036;2022-09-30T05:57:27;14.10;;;8.97;;
18623;SDS011;9441;51.420;7.036;2022-09-30T05:58:28;18.63;;;9.00;;
18623;SDS011;9441;51.420;7.036;2022-09-30T05:59:30;14.27;;;9.13;;
18623;SDS011;9441;51.420;7.036;2022-09-30T06:00:31;17.73;;;9.10;;
18623;SDS011;9441;51.420;7.036;2022-09-30T06:01:33;17.27;;;9.57;;
18623;SDS011;9441;51.420;7.036;2022-09-30T06:02:34;12.27;;;8.53;;
18623;SDS011;9441;51.420;7.036;2022-09-30T06:03:37;17.93;;;11.57;;
18623;SDS011;9441;51.420;7.036;2022-09-30T06:04:39;15.20;;;10.03;;
18623;SDS011;9441;51.420;7.036;2022-09-30T06:05:40;16.50;;;9.33;;
18623;SDS011;9441;51.420;7.036;2022-09-30T06:06:43;19.07;;;9.67;;
18623;SDS011;9441;51.420;7.036;2022-09-30T06:07:44;31.47;;;16.77;;
18623;SDS011;9441;51.420;7.036;2022-09-30T06:08:46;20.80;;;12.03;;
18623;SDS011;9441;51.420;7.036;2022-09-30T06:09:48;19.07;;;10.43;;
18623;SDS011;9441;51.420;7.036;2022-09-30T06:10:51;18.40;;;9.50;;
18623;SDS011;9441;51.420;7.036;2022-09-30T06:11:52;14.57;;;9.13;;
18623;SDS011;9441;51.420;7.036;2022-09-30T06:12:58;16.57;;;9.67;;
18623;SDS011;9441;51.420;7.036;2022-09-30T06:13:59;22.53;;;9.63;;
18623;SDS011;9441;51.420;7.036;2022-09-30T06:15:01;18.57;;;9.00;;
18623;SDS011;9441;51.420;7.036;2022-09-30T06:16:04;13.33;;;8.93;;
18623;SDS011;9441;51.420;7.036;2022-09-30T06:17:06;17.40;;;9.30;;
18623;SDS011;9441;51.420;7.036;2022-09-30T06:18:07;18.43;;;9.27;;
18623;SDS011;9441;51.420;7.036;2022-09-30T06:19:11;16.37;;;10.30;;
18623;SDS011;9441;51.420;7.036;2022-09-30T06:20:13;18.50;;;9.40;;
18623;SDS011;9441;51.420;7.036;2022-09-30T06:21:16;14.80;;;9.20;;
18623;SDS011;9441;51.420;7.036;2022-09-30T06:22:19;15.53;;;9.20;;
18623;SDS011;9441;51.420;7.036;2022-09-30T06:23:21;17.93;;;9.33;;
18623;SDS011;9441;51.420;7.036;2022-09-30T06:24:22;17.03;;;9.93;;
18623;SDS011;9441;51.420;7.036;2022-09-30T06:25:24;18.37;;;9.80;;
18623;SDS011;9441;51.420;7.036;2022-09-30T06:26:27;19.03;;;10.47;;
18623;SDS011;9441;51.420;7.036;2022-09-30T06:27:29;24.57;;;12.57;;
18623;SDS011;9441;51.420;7.036;2022-09-30T06:28:30;21.50;;;11.97;;
18623;SDS011;9441;51.420;7.036;2022-09-30T06:29:34;21.77;;;11.80;;
18623;SDS011;9441;51.420;7.036;2022-09-30T06:30:35;27.77;;;15.73;;
18623;SDS011;9441;51.420;7.036;2022-09-30T06:31:37;26.00;;;15.80;;
18623;SDS011;9441;51.420;7.036;2022-09-30T06:32:38;27.93;;;17.07;;
18623;SDS011;9441;51.420;7.036;2022-09-30T06:33:41;24.47;;;15.33;;
18623;SDS011;9441;51.420;7.036;2022-09-30T06:34:42;27.33;;;17.33;;
18623;SDS011;9441;51.420;7.036;2022-09-30T06:35:44;26.77;;;15.43;;